Time;durP1;ratioP1;P1;durP2;ratioP2;P2;SDS_P1;SDS_P2;PMS_P1;PMS_P2;Temp;Humidity;BMP_temperature;BMP_pressure;BME280_temperature;BME280_humidity;BME280_pressure;Samples;Min_cycle;Max_cycle;Signal;HPM_P1;HPM_P2
2020/12/07 00:03:23;;;;;;;13.63;11.37;;;;;;;5.90;65.01;95943.75;8242663;28;20206;-74
2020/12/07 00:07:26;;;;;;;12.50;11.20;;;;;;;6.17;64.00;95949.88;8234725;28;20431;-79
2020/12/07 00:11:28;;;;;;;17.90;11.30;;;;;;;8.20;86.13;95944.03;8234929;28;20273;-74
2020/12/07 00:15:29;;;;;;;9.97;8.90;;;;;;;8.86;64.63;95955.06;8235897;28;20229;-76
2020/12/07 00:19:32;;;;;;;8.97;8.07;;;;;;;7.27;62.21;95966.41;8235605;28;20206;-77
2020/12/07 00:23:36;;;;;;;6.70;6.10;;;;;;;6.83;62.30;95969.06;8237881;28;20703;-76
2020/12/07 00:27:38;;;;;;;6.03;5.53;;;;;;;6.65;63.04;95971.00;8234217;28;20241;-76
2020/12/07 00:31:40;;;;;;;4.87;4.47;;;;;;;6.55;63.13;95977.63;8247264;28;20218;-76
2020/12/07 00:35:42;;;;;;;5.37;4.87;;;;;;;6.43;63.59;95978.34;8266270;28;20545;-74
2020/12/07 00:39:44;;;;;;;4.40;4.00;;;;;;;6.30;63.27;95967.94;8265979;28;20221;-74
2020/12/07 00:43:46;;;;;;;4.17;3.77;;;;;;;6.23;63.69;95964.94;8266915;28;20201;-75
2020/12/07 00:47:48;;;;;;;3.77;3.47;;;;;;;6.18;64.11;95977.22;8266023;28;20272;-77
2020/12/07 00:51:50;;;;;;;3.50;3.20;;;;;;;6.00;64.40;95970.59;8266478;28;20270;-76
2020/12/07 00:55:53;;;;;;;3.30;3.00;;;;;;;6.03;64.31;95968.66;8266571;28;20244;-75
2020/12/07 00:59:54;;;;;;;3.00;2.80;;;;;;;6.05;64.11;95964.28;8266319;28;20201;-75
2020/12/07 01:03:56;;;;;;;2.77;2.57;;;;;;;6.04;64.12;95965.19;8240398;28;20213;-76
2020/12/07 01:07:58;;;;;;;3.20;2.93;;;;;;;6.02;64.62;95972.16;8233733;28;20237;-76
2020/12/07 01:12:01;;;;;;;3.10;2.90;;;;;;;5.98;64.21;95967.28;8233159;28;20230;-76
2020/12/07 01:16:03;;;;;;;2.57;2.37;;;;;;;5.95;64.20;95963.13;8233074;28;20211;-77
2020/12/07 01:20:05;;;;;;;3.20;2.90;;;;;;;5.92;64.52;95950.47;8234021;28;20207;-77
2020/12/07 01:24:08;;;;;;;4.17;2.80;;;;;;;5.96;64.45;95949.41;8233906;28;20257;-78
2020/12/07 01:28:12;;;;;;;2.70;2.50;;;;;;;6.47;62.77;95938.66;8235279;28;20455;-81
2020/12/07 01:32:14;;;;;;;2.87;2.50;;;;;;;5.99;64.22;95920.13;8255817;28;20233;-81
2020/12/07 01:36:17;;;;;;;2.60;2.40;;;;;;;5.99;64.59;95930.38;8257015;28;20602;-80
2020/12/07 01:40:19;;;;;;;2.20;2.10;;;;;;;5.94;64.39;95945.22;8256259;28;20312;-80
2020/12/07 01:44:21;;;;;;;2.50;2.30;;;;;;;5.99;64.33;95946.63;8259615;28;20214;-81
2020/12/07 01:48:25;;;;;;;3.00;2.37;;;;;;;5.93;64.57;95952.09;8248798;28;20242;-80
2020/12/07 01:52:28;;;;;;;3.00;2.80;;;;;;;5.84;64.78;95944.91;8243906;28;20249;-80
2020/12/07 01:56:31;;;;;;;3.60;3.20;;;;;;;5.77;65.02;95949.59;8247256;28;20528;-80
2020/12/07 02:00:34;;;;;;;3.60;3.30;;;;;;;5.87;64.79;95943.00;8284161;28;20292;-80
2020/12/07 02:04:36;;;;;;;4.17;3.80;;;;;;;5.70;65.07;95968.00;8285139;28;20653;-80
2020/12/07 02:08:54;;;;;;;3.93;3.63;;;;;;;5.72;64.93;95976.44;8286265;28;20226;-80
2020/12/07 02:12:56;;;;;;;4.03;3.73;;;;;;;5.64;64.69;95976.88;8285100;28;20222;-80
2020/12/07 02:16:59;;;;;;;3.90;3.60;;;;;;;5.71;64.57;95969.66;8285378;28;20221;-80
2020/12/07 02:21:02;;;;;;;3.93;3.63;;;;;;;5.74;64.51;95964.34;8285898;28;20206;-80
2020/12/07 02:25:05;;;;;;;3.90;3.60;;;;;;;5.80;64.65;95962.25;8286069;28;20206;-80
2020/12/07 02:29:07;;;;;;;3.97;3.67;;;;;;;5.84;64.65;95963.72;8286461;28;20537;-80
2020/12/07 02:33:09;;;;;;;3.87;3.57;;;;;;;5.79;65.19;95970.06;8286154;28;20237;-80
2020/12/07 02:37:12;;;;;;;3.87;3.57;;;;;;;5.86;64.79;95986.75;8286907;28;20213;-80
2020/12/07 02:41:14;;;;;;;4.10;3.80;;;;;;;5.68;65.05;96006.63;8285456;28;20212;-80
2020/12/07 02:45:17;;;;;;;4.03;3.73;;;;;;;5.65;64.86;96007.63;8286623;28;20206;-80
2020/12/07 02:49:19;;;;;;;3.73;3.43;;;;;;;5.19;66.43;96011.88;8286231;28;20237;-80
2020/12/07 02:53:22;;;;;;;3.50;3.20;;;;;;;5.38;65.81;96017.66;8287057;28;20213;-80
2020/12/07 02:57:26;;;;;;;3.27;3.07;;;;;;;5.43;65.85;96049.06;8269519;28;20210;-80
2020/12/07 03:01:28;;;;;;;3.87;3.57;;;;;;;5.65;65.11;96053.84;8239631;28;20565;-80
2020/12/07 03:05:29;;;;;;;3.40;3.10;;;;;;;5.52;65.09;96058.00;8240035;28;20622;-80
2020/12/07 03:09:33;;;;;;;2.93;2.70;;;;;;;5.41;65.73;96058.56;8258688;28;20556;-80
2020/12/07 03:13:36;;;;;;;2.70;2.50;;;;;;;5.54;65.09;96057.91;8259477;28;20210;-80
2020/12/07 03:17:38;;;;;;;2.50;2.30;;;;;;;5.47;65.22;96049.72;8260378;28;20202;-80
2020/12/07 03:21:40;;;;;;;2.50;2.30;;;;;;;5.52;64.63;96039.19;8261719;28;20213;-80
2020/12/07 03:25:43;;;;;;;3.20;2.60;;;;;;;5.66;64.70;96034.94;8256093;28;20229;-80
2020/12/07 03:29:45;;;;;;;2.70;2.50;;;;;;;5.65;64.52;96053.84;8265157;28;20340;-80
2020/12/07 03:33:47;;;;;;;2.60;2.40;;;;;;;5.75;64.46;96050.75;8269226;28;20209;-80
2020/12/07 03:37:49;;;;;;;3.13;2.87;;;;;;;5.68;64.57;96063.94;8265893;28;20217;-80
2020/12/07 03:41:52;;;;;;;2.70;2.50;;;;;;;5.34;64.91;96084.66;8253678;28;20202;-80
2020/12/07 03:45:55;;;;;;;2.70;2.50;;;;;;;5.59;64.99;96086.72;8253634;28;20203;-80
2020/12/07 03:49:57;;;;;;;2.97;2.77;;;;;;;5.63;64.69;96096.72;8254050;28;20557;-80
2020/12/07 03:53:59;;;;;;;2.97;2.77;;;;;;;5.59;64.81;96118.34;8236676;28;20214;-80
2020/12/07 03:58:01;;;;;;;3.30;3.10;;;;;;;5.59;64.89;96122.69;8262573;28;20198;-80
2020/12/07 04:02:04;;;;;;;3.33;3.13;;;;;;;5.62;64.65;96117.38;8266291;28;20273;-80
2020/12/07 04:06:10;;;;;;;3.33;3.13;;;;;;;5.66;64.71;96109.41;8263875;28;20202;-80
2020/12/07 04:10:13;;;;;;;3.30;3.10;;;;;;;5.57;64.86;96109.09;8246328;28;20221;-80
2020/12/07 04:14:15;;;;;;;4.53;4.13;;;;;;;5.59;64.70;96117.53;8262238;28;20598;-80
2020/12/07 04:18:17;;;;;;;4.77;4.40;;;;;;;5.59;64.74;96126.06;8261536;28;20202;-80
2020/12/07 04:22:19;;;;;;;5.60;5.10;;;;;;;5.51;65.33;96127.41;8262578;28;20214;-80
2020/12/07 04:26:23;;;;;;;5.33;4.93;;;;;;;5.65;64.81;96118.06;8265473;28;20229;-80
2020/12/07 04:30:26;;;;;;;6.13;4.83;;;;;;;5.58;64.73;96123.56;8266528;28;20237;-81
2020/12/07 04:34:29;;;;;;;5.80;5.30;;;;;;;5.60;64.85;96119.22;8241978;28;20203;-80
2020/12/07 04:38:32;;;;;;;5.03;4.67;;;;;;;5.65;64.82;96122.34;8258224;28;20202;-80
2020/12/07 04:42:35;;;;;;;5.70;5.20;;;;;;;5.57;64.71;96132.22;8257346;28;20206;-80
2020/12/07 04:46:38;;;;;;;5.50;5.07;;;;;;;5.65;65.00;96135.19;8256124;28;20230;-80
2020/12/07 04:50:40;;;;;;;6.00;5.50;;;;;;;5.63;64.84;96124.97;8252833;28;20226;-80
2020/12/07 04:54:43;;;;;;;5.93;5.43;;;;;;;5.73;64.49;96134.75;8241575;28;20194;-80
2020/12/07 04:58:46;;;;;;;6.30;5.70;;;;;;;5.66;64.78;96134.28;8273450;28;20645;-80
2020/12/07 05:02:52;;;;;;;5.87;5.37;;;;;;;5.73;64.89;96142.47;8274011;28;20206;-80
2020/12/07 05:06:57;;;;;;;6.27;5.77;;;;;;;5.63;65.02;96155.81;8261802;28;20686;-79
2020/12/07 05:11:01;;;;;;;6.87;6.27;;;;;;;5.66;64.68;96154.84;8262310;28;20222;-79
2020/12/07 05:15:08;;;;;;;7.13;6.23;;;;;;;5.68;64.95;96155.56;8254125;28;20201;-80
2020/12/07 05:19:11;;;;;;;7.70;7.10;;;;;;;5.69;64.39;96164.91;8256307;28;20688;-80
2020/12/07 05:23:17;;;;;;;7.83;7.13;;;;;;;5.54;65.43;96174.28;8275292;28;20217;-80
2020/12/07 05:27:20;;;;;;;6.90;6.30;;;;;;;5.63;65.30;96178.09;8263803;28;20205;-80
2020/12/07 05:31:22;;;;;;;7.77;7.07;;;;;;;5.67;65.13;96195.00;8272611;28;20221;-80
2020/12/07 05:35:25;;;;;;;7.90;7.20;;;;;;;5.48;65.10;96187.44;8274517;28;20213;-80
2020/12/07 05:39:28;;;;;;;7.83;7.10;;;;;;;5.49;65.44;96182.22;8281414;28;20202;-80
2020/12/07 05:43:31;;;;;;;7.73;7.03;;;;;;;5.59;65.42;96195.41;8264122;28;20199;-80
2020/12/07 05:47:34;;;;;;;7.80;7.10;;;;;;;5.68;65.02;96205.19;8262986;28;20245;-80
2020/12/07 05:51:38;;;;;;;7.67;7.07;;;;;;;5.59;65.30;96203.09;8258573;28;20223;-77
2020/12/07 05:55:40;;;;;;;7.70;7.10;;;;;;;5.57;65.46;96204.09;8243854;28;20206;-78
2020/12/07 05:59:45;;;;;;;8.17;7.47;;;;;;;5.70;65.22;96204.28;8243636;28;20207;-78
2020/12/07 06:03:48;;;;;;;7.20;6.50;;;;;;;5.72;64.82;96197.34;8250691;28;20195;-78
2020/12/07 06:07:56;;;;;;;7.73;7.03;;;;;;;5.68;64.64;96197.47;8252574;28;20233;-79
2020/12/07 06:12:04;;;;;;;7.80;7.10;;;;;;;5.63;65.14;96208.91;8253604;28;20219;-79
2020/12/07 06:16:07;;;;;;;7.93;7.30;;;;;;;5.71;65.04;96219.59;8250531;28;20195;-78
2020/12/07 06:20:09;;;;;;;7.40;6.80;;;;;;;5.75;64.76;96216.00;8265611;28;20253;-78
2020/12/07 06:24:11;;;;;;;7.70;7.10;;;;;;;5.74;64.74;96228.91;8252122;28;20526;-78
2020/12/07 06:28:13;;;;;;;7.70;7.00;;;;;;;5.71;64.83;96239.31;8240899;28;20225;-76
2020/12/07 06:32:15;;;;;;;8.30;7.60;;;;;;;5.53;65.38;96241.94;8238556;28;20320;-78
2020/12/07 06:36:25;;;;;;;7.87;7.17;;;;;;;5.52;65.33;96229.19;8259998;28;20201;-78
2020/12/07 06:40:29;;;;;;;8.17;7.47;;;;;;;5.61;65.08;96228.72;8270300;28;20209;-78
2020/12/07 06:44:33;;;;;;;8.77;8.07;;;;;;;5.67;64.77;96229.22;8271949;28;20225;-78
2020/12/07 06:48:37;;;;;;;8.33;7.63;;;;;;;5.68;64.81;96246.28;8271028;28;20328;-78
2020/12/07 06:52:42;;;;;;;8.00;7.30;;;;;;;5.49;64.35;96253.28;8270309;28;20225;-78
2020/12/07 06:56:44;;;;;;;7.90;7.10;;;;;;;5.65;65.05;96264.44;8262963;28;20217;-78
2020/12/07 07:00:46;;;;;;;8.47;7.00;;;;;;;5.65;64.94;96279.84;8270927;28;20205;-78
2020/12/07 07:04:51;;;;;;;7.10;6.40;;;;;;;5.58;65.21;96273.38;8270578;28;20208;-78
2020/12/07 07:08:54;;;;;;;7.20;6.60;;;;;;;5.46;65.12;96279.13;8270998;28;20218;-78
2020/12/07 07:12:56;;;;;;;6.87;6.27;;;;;;;5.58;65.32;96285.34;8271630;28;20653;-78
2020/12/07 07:16:58;;;;;;;7.30;6.60;;;;;;;5.67;65.14;96279.75;8270586;28;20202;-78
2020/12/07 07:21:01;;;;;;;8.23;7.53;;;;;;;5.73;64.84;96281.16;8270816;28;20209;-78
2020/12/07 07:25:09;;;;;;;7.47;6.70;;;;;;;5.49;64.21;96291.81;8269334;28;20210;-78
2020/12/07 07:29:11;;;;;;;6.90;6.30;;;;;;;5.68;64.87;96296.84;8268315;28;20194;-78
2020/12/07 07:33:13;;;;;;;6.87;6.27;;;;;;;5.61;64.40;96300.63;8268468;28;20233;-78
2020/12/07 07:37:15;;;;;;;7.40;6.70;;;;;;;5.55;64.78;96306.06;8269255;28;20209;-78
2020/12/07 07:41:22;;;;;;;6.93;6.00;;;;;;;5.83;64.22;96320.91;8268801;28;20213;-78
2020/12/07 07:45:26;;;;;;;7.23;5.37;;;;;;;5.85;64.10;96327.63;8273333;28;20304;-78
2020/12/07 07:49:31;;;;;;;6.60;6.00;;;;;;;5.94;63.89;96341.75;8270477;28;20268;-78
2020/12/07 07:54:05;;;;;;;6.70;6.10;;;;;;;5.88;64.02;96334.31;8268444;28;20644;-78
2020/12/07 08:15:49;;;;;;;5.77;5.27;;;;;;;5.86;63.98;96378.09;8248312;28;20202;-78
2020/12/07 08:20:06;;;;;;;4.60;4.20;;;;;;;5.75;63.66;96382.94;8267555;28;20205;-78
2020/12/07 08:24:09;;;;;;;5.47;4.93;;;;;;;5.75;64.61;96382.94;8267256;28;20652;-78
2020/12/07 08:28:20;;;;;;;5.30;4.80;;;;;;;5.78;64.47;96405.06;8268062;28;20613;-78
2020/12/07 08:32:23;;;;;;;6.17;4.03;;;;;;;5.87;64.62;96397.72;8257803;28;20218;-78
2020/12/07 08:36:27;;;;;;;4.57;4.17;;;;;;;5.97;64.14;96405.00;8237208;28;20210;-78
2020/12/07 08:40:28;;;;;;;4.07;3.77;;;;;;;5.70;64.57;96402.88;8241515;28;20215;-78
2020/12/07 08:44:31;;;;;;;4.00;3.50;;;;;;;6.00;64.17;96397.97;8240807;28;20230;-78
2020/12/07 08:48:34;;;;;;;4.17;3.80;;;;;;;5.94;64.08;96400.84;8240007;28;20234;-78
2020/12/07 08:52:37;;;;;;;4.77;4.37;;;;;;;5.87;64.49;96408.00;8239736;28;20586;-79
2020/12/07 08:56:39;;;;;;;4.40;4.00;;;;;;;5.82;64.39;96416.84;8239357;28;20198;-79
2020/12/07 09:00:40;;;;;;;4.40;3.83;;;;;;;6.00;64.64;96433.13;8240136;28;20326;-78
2020/12/07 09:04:42;;;;;;;4.10;3.70;;;;;;;5.84;64.55;96441.56;8236928;28;20203;-78
2020/12/07 09:08:45;;;;;;;4.23;3.83;;;;;;;5.98;64.82;96447.81;8240951;28;20674;-79
2020/12/07 09:12:46;;;;;;;4.50;3.93;;;;;;;6.15;64.12;96444.34;8244028;28;20806;-78
2020/12/07 09:16:48;;;;;;;5.63;3.63;;;;;;;6.10;64.68;96457.44;8240973;28;20223;-78
2020/12/07 09:20:50;;;;;;;4.10;3.77;;;;;;;6.10;63.85;96459.19;8237577;28;20209;-78
2020/12/07 09:24:52;;;;;;;4.20;3.30;;;;;;;6.22;64.24;96472.25;8235022;28;20241;-78
2020/12/07 09:28:54;;;;;;;4.33;3.40;;;;;;;6.29;63.81;96480.47;8235183;28;20289;-77
2020/12/07 09:32:56;;;;;;;3.10;2.80;;;;;;;6.22;64.84;96479.13;8234715;28;20256;-78
2020/12/07 09:36:57;;;;;;;3.90;2.50;;;;;;;6.21;66.05;96480.88;8234092;28;20543;-78
2020/12/07 09:41:00;;;;;;;13.40;3.47;;;;;;;7.58;70.14;96472.78;8233400;28;20206;-75
2020/12/07 09:45:02;;;;;;;11.13;2.57;;;;;;;7.95;62.77;96466.34;8232785;28;20231;-75
2020/12/07 09:49:04;;;;;;;7.57;2.80;;;;;;;8.26;58.60;96472.28;8233917;28;20230;-77
2020/12/07 09:53:08;;;;;;;3.73;2.33;;;;;;;7.29;60.00;96469.22;8232931;28;20270;-77
2020/12/07 09:57:10;;;;;;;2.50;2.30;;;;;;;7.03;60.57;96474.88;8232773;28;20210;-77
2020/12/07 10:01:12;;;;;;;3.37;2.30;;;;;;;7.10;60.77;96479.69;8238091;28;20210;-82
2020/12/07 10:05:14;;;;;;;2.50;2.30;;;;;;;6.99;61.23;96478.53;8241009;28;20227;-77
2020/12/07 10:09:16;;;;;;;4.00;3.13;;;;;;;7.04;61.01;96471.41;8234799;28;20226;-81
2020/12/07 10:13:18;;;;;;;7.30;3.87;;;;;;;7.15;61.31;96465.66;8238309;28;20716;-76
2020/12/07 10:17:20;;;;;;;4.10;3.70;;;;;;;6.87;61.29;96465.50;8231751;28;20302;-77
2020/12/07 10:21:25;;;;;;;5.30;2.70;;;;;;;6.97;60.63;96469.25;8236398;28;20622;-76
2020/12/07 10:25:27;;;;;;;2.87;2.67;;;;;;;6.85;61.82;96471.56;8240061;28;20310;-81
2020/12/07 10:29:30;;;;;;;2.60;2.40;;;;;;;6.94;60.13;96469.41;8251737;28;20649;-78
2020/12/07 10:33:31;;;;;;;3.67;2.90;;;;;;;6.99;60.47;96468.25;8244607;28;20233;-79
2020/12/07 10:37:33;;;;;;;3.47;2.20;;;;;;;7.04;60.71;96476.56;8238141;28;20522;-76
2020/12/07 10:41:35;;;;;;;3.13;2.80;;;;;;;7.13;60.92;96470.06;8238882;28;20222;-80
2020/12/07 10:45:37;;;;;;;3.00;2.67;;;;;;;7.00;60.82;96454.44;8237386;28;20210;-75
2020/12/07 10:49:39;;;;;;;2.80;2.50;;;;;;;7.03;60.15;96448.31;8249599;28;20264;-77
2020/12/07 10:53:41;;;;;;;3.00;2.70;;;;;;;7.15;60.70;96446.81;8257397;28;20226;-77
2020/12/07 10:57:43;;;;;;;3.17;2.73;;;;;;;7.21;60.58;96441.31;8216214;28;20203;-76
2020/12/07 11:01:45;;;;;;;3.37;2.97;;;;;;;7.27;60.96;96445.31;8241089;28;20254;-82
2020/12/07 11:05:47;;;;;;;3.55;3.20;;;;;;;7.68;59.09;96445.56;8262032;28;20434;-82
2020/12/07 11:09:49;;;;;;;3.87;3.00;;;;;;;7.26;60.43;96447.06;8236843;28;20225;-65
2020/12/07 11:13:51;;;;;;;3.83;3.17;;;;;;;7.33;61.03;96447.53;8251057;28;20222;-64
2020/12/07 11:17:54;;;;;;;7.03;2.90;;;;;;;7.45;60.35;96464.91;8247256;28;20202;-65
2020/12/07 11:21:56;;;;;;;2.87;2.67;;;;;;;6.99;61.31;96459.72;8252363;28;20289;-65
2020/12/07 11:25:57;;;;;;;3.83;2.90;;;;;;;7.07;61.55;96462.69;8247363;28;20674;-65
2020/12/07 11:29:59;;;;;;;3.23;2.90;;;;;;;7.28;61.26;96467.59;8230950;28;20217;-65
2020/12/07 11:34:02;;;;;;;3.33;2.70;;;;;;;6.85;61.50;96463.84;8235365;28;20273;-65
2020/12/07 11:38:08;;;;;;;3.10;2.77;;;;;;;7.19;61.61;96462.00;8234946;28;20207;-65
2020/12/07 11:42:18;;;;;;;3.63;2.60;;;;;;;6.89;61.00;96461.91;8234621;28;20554;-64
2020/12/07 11:46:27;;;;;;;2.93;2.60;;;;;;;6.99;61.09;96459.72;8233611;28;20226;-64
2020/12/07 11:50:30;;;;;;;3.17;2.67;;;;;;;7.07;60.92;96449.81;8233802;28;20233;-64
2020/12/07 11:54:32;;;;;;;3.30;2.80;;;;;;;7.25;60.72;96453.13;8233933;28;20288;-64
2020/12/07 11:58:33;;;;;;;4.13;3.10;;;;;;;7.44;61.20;96450.34;8242181;28;20627;-65
2020/12/07 12:02:35;;;;;;;4.25;3.15;;;;;;;7.60;59.94;96448.59;8232513;28;20462;-65
2020/12/07 12:06:38;;;;;;;2.90;2.63;;;;;;;7.21;59.11;96456.78;8233882;28;20226;-64
2020/12/07 12:10:40;;;;;;;3.23;2.97;;;;;;;7.00;60.67;96446.72;8233555;28;20207;-68
2020/12/07 12:14:42;;;;;;;3.47;3.00;;;;;;;6.98;61.67;96447.72;8234803;28;20206;-65
2020/12/07 12:18:44;;;;;;;6.10;3.13;;;;;;;6.82;60.64;96450.31;8247822;28;20206;-83
2020/12/07 12:22:47;;;;;;;4.10;3.40;;;;;;;7.11;60.15;96440.19;8249370;28;20576;-80
2020/12/07 12:26:49;;;;;;;3.70;3.40;;;;;;;7.42;59.98;96435.00;8251106;28;20422;-81
2020/12/07 12:30:51;;;;;;;3.63;3.33;;;;;;;7.48;59.82;96430.41;8256118;28;20203;-79
2020/12/07 12:34:53;;;;;;;3.93;3.47;;;;;;;7.52;60.12;96439.63;8239114;28;20561;-80
2020/12/07 12:38:59;;;;;;;4.40;4.00;;;;;;;7.56;59.93;96438.56;8243562;28;20222;-80
2020/12/07 12:43:01;;;;;;;3.97;3.57;;;;;;;7.15;60.47;96452.78;8246838;28;20222;-80
2020/12/07 12:47:03;;;;;;;3.78;3.45;;;;;;;7.41;60.32;96455.69;8229921;28;20439;-81
2020/12/07 12:51:06;;;;;;;4.23;3.83;;;;;;;7.29;60.56;96467.50;8238851;28;20234;-81
2020/12/07 12:55:10;;;;;;;4.47;4.07;;;;;;;7.29;60.92;96474.38;8241010;28;20553;-81
2020/12/07 12:59:12;;;;;;;4.23;3.73;;;;;;;7.15;60.26;96475.97;8242062;28;20252;-79
2020/12/07 13:03:19;;;;;;;4.40;4.00;;;;;;;7.05;61.24;96485.94;8240355;28;20665;-84
2020/12/07 13:07:21;;;;;;;4.67;4.27;;;;;;;7.21;60.88;96483.34;8240620;28;20249;-82
2020/12/07 13:11:30;;;;;;;3.90;3.53;;;;;;;7.25;60.44;96496.88;8250644;28;20229;-82
2020/12/07 13:15:33;;;;;;;4.57;3.87;;;;;;;7.24;60.62;96501.22;8242807;28;20207;-79
2020/12/07 13:19:35;;;;;;;7.20;4.87;;;;;;;7.06;60.75;96494.47;8220571;28;20253;-81
2020/12/07 13:23:42;;;;;;;4.70;4.20;;;;;;;7.08;60.99;96500.38;8236957;28;20214;-80
2020/12/07 13:27:53;;;;;;;4.80;4.40;;;;;;;6.99;60.08;96511.19;8253116;28;20218;-85
2020/12/07 13:31:55;;;;;;;4.93;4.40;;;;;;;7.08;60.28;96507.28;8235884;28;20241;-78
2020/12/07 13:35:57;;;;;;;4.00;3.70;;;;;;;7.04;59.58;96502.31;8234206;28;20214;-82
2020/12/07 13:39:59;;;;;;;3.83;3.43;;;;;;;7.14;59.45;96500.06;8234708;28;20210;-82
2020/12/07 13:44:02;;;;;;;4.30;4.00;;;;;;;7.49;57.92;96510.19;8232525;28;20435;-66
2020/12/07 13:48:04;;;;;;;5.00;4.60;;;;;;;7.15;58.73;96506.84;8231081;28;20235;-69
2020/12/07 13:52:08;;;;;;;4.80;4.40;;;;;;;7.13;59.30;96516.41;8231262;28;20234;-67
2020/12/07 13:56:10;;;;;;;4.73;4.33;;;;;;;7.14;59.70;96525.81;8236568;28;20213;-67
2020/12/07 14:00:12;;;;;;;5.50;5.00;;;;;;;7.13;59.36;96529.28;8237120;28;20218;-68
2020/12/07 14:04:28;;;;;;;6.07;5.43;;;;;;;7.17;59.38;96527.38;8222477;28;20600;-67
2020/12/07 14:08:31;;;;;;;11.70;9.57;;;;;;;7.22;59.76;96522.81;8253880;28;20541;-68
2020/12/07 14:12:34;;;;;;;15.67;10.60;;;;;;;7.24;60.38;96526.97;8262450;28;20229;-68
2020/12/07 14:16:37;;;;;;;8.93;7.40;;;;;;;7.16;59.85;96536.00;8243046;28;20297;-67
2020/12/07 14:20:46;;;;;;;12.07;8.57;;;;;;;7.15;60.42;96540.31;8248126;28;20286;-68
2020/12/07 14:24:56;;;;;;;11.37;8.33;;;;;;;7.16;60.68;96542.00;8236631;28;20282;-68
2020/12/07 14:29:48;;;;;;;8.67;7.77;;;;;;;7.10;60.67;96544.91;8236678;28;20194;-67
2020/12/07 14:42:24;;;;;;;5.90;5.23;;;;;;;7.03;60.56;96553.88;8222808;28;20209;-69
2020/12/07 14:46:28;;;;;;;6.20;5.60;;;;;;;7.07;60.10;96554.53;8253586;28;20244;-69
2020/12/07 14:50:36;;;;;;;6.40;5.80;;;;;;;7.03;60.01;96553.88;8248668;28;20206;-70
2020/12/07 14:54:42;;;;;;;6.37;5.77;;;;;;;7.01;60.02;96556.50;8235355;28;20682;-67
2020/12/07 15:03:42;;;;;;;7.67;6.97;;;;;;;7.03;60.52;96548.72;8246721;28;20201;-77
2020/12/07 15:12:19;;;;;;;6.63;5.93;;;;;;;7.08;60.02;96561.31;8221106;28;20225;-78
2020/12/07 15:16:23;;;;;;;6.83;5.77;;;;;;;7.20;62.99;96568.41;8246237;28;20202;-79
2020/12/07 15:20:25;;;;;;;8.33;6.80;;;;;;;7.12;59.98;96576.56;8241566;28;20589;-77
2020/12/07 15:24:27;;;;;;;6.87;6.17;;;;;;;7.09;60.14;96584.44;8252267;28;20223;-79
2020/12/07 15:28:29;;;;;;;7.47;6.60;;;;;;;7.09;60.12;96589.56;8248749;28;20210;-78
2020/12/07 15:32:31;;;;;;;7.53;6.83;;;;;;;7.08;59.81;96576.78;8248320;28;20239;-77
2020/12/07 15:36:33;;;;;;;7.63;6.93;;;;;;;6.92;60.53;96593.00;8250145;28;20575;-77
2020/12/07 15:40:36;;;;;;;8.83;7.93;;;;;;;7.02;60.45;96594.19;8241168;28;20215;-81
2020/12/07 15:44:37;;;;;;;9.60;8.60;;;;;;;6.96;60.47;96586.78;8258269;28;20202;-75
2020/12/07 15:48:39;;;;;;;11.17;9.10;;;;;;;6.93;59.93;96586.13;8255655;28;20241;-77
2020/12/07 15:52:41;;;;;;;10.63;9.20;;;;;;;6.91;59.58;96588.81;8243650;28;20265;-78
2020/12/07 15:56:47;;;;;;;11.17;10.03;;;;;;;6.87;59.52;96592.41;8258604;28;20206;-68
2020/12/07 16:00:48;;;;;;;12.20;10.87;;;;;;;6.77;59.83;96589.47;8234683;28;20589;-68
2020/12/07 16:04:50;;;;;;;11.67;10.20;;;;;;;6.83;59.77;96596.06;8233588;28;20210;-67
2020/12/07 16:08:52;;;;;;;9.60;8.60;;;;;;;6.83;60.13;96599.50;8232558;28;20226;-67
2020/12/07 16:12:54;;;;;;;11.30;10.20;;;;;;;6.64;59.69;96589.28;8233010;28;20230;-68
2020/12/07 16:16:56;;;;;;;10.63;9.60;;;;;;;6.66;60.38;96604.63;8233233;28;20215;-67
2020/12/07 16:20:58;;;;;;;10.30;9.20;;;;;;;6.77;60.37;96604.91;8233143;28;20242;-68
2020/12/07 16:25:00;;;;;;;11.43;9.90;;;;;;;6.86;60.16;96595.91;8232656;28;20210;-68
2020/12/07 16:29:02;;;;;;;10.90;8.83;;;;;;;6.61;60.28;96598.91;8232870;28;20195;-68
2020/12/07 16:33:04;;;;;;;10.67;9.67;;;;;;;6.75;59.94;96599.03;8242130;28;20298;-76
2020/12/07 16:37:06;;;;;;;10.33;9.40;;;;;;;6.77;60.44;96602.34;8246165;28;20206;-75
2020/12/07 16:41:08;;;;;;;11.73;10.53;;;;;;;6.55;60.00;96601.75;8241854;28;20209;-75
2020/12/07 16:45:10;;;;;;;13.33;11.50;;;;;;;6.73;60.38;96600.84;8244003;28;20210;-74
2020/12/07 16:49:13;;;;;;;12.00;10.77;;;;;;;6.61;60.07;96615.16;8237580;28;20285;-73
2020/12/07 16:53:15;;;;;;;10.80;9.80;;;;;;;6.65;60.37;96610.69;8239257;28;20230;-74
2020/12/07 16:57:16;;;;;;;10.83;9.83;;;;;;;6.75;60.70;96613.63;8232206;28;20206;-74
2020/12/07 17:01:19;;;;;;;11.10;10.10;;;;;;;6.64;60.33;96607.31;8231815;28;20203;-73
2020/12/07 17:05:21;;;;;;;13.17;10.63;;;;;;;6.51;60.97;96605.41;8233082;28;20213;-73
2020/12/07 17:09:23;;;;;;;10.47;9.43;;;;;;;6.14;62.38;96602.06;8232790;28;20226;-73
2020/12/07 17:13:24;;;;;;;11.67;10.57;;;;;;;6.30;61.75;96602.97;8232901;28;20314;-74
2020/12/07 17:17:27;;;;;;;10.63;9.47;;;;;;;6.12;62.07;96615.00;8232443;28;20210;-74
2020/12/07 17:21:31;;;;;;;12.20;10.57;;;;;;;6.12;62.77;96609.03;8223460;28;20203;-75
2020/12/07 17:25:33;;;;;;;11.17;10.07;;;;;;;5.97;63.52;96608.84;8232214;28;20210;-74
2020/12/07 17:29:36;;;;;;;18.23;15.37;;;;;;;5.97;63.00;96608.84;8235044;28;20213;-75
2020/12/07 17:33:39;;;;;;;20.70;17.83;;;;;;;5.85;63.75;96599.13;8239247;28;20317;-74
2020/12/07 17:37:41;;;;;;;15.13;12.53;;;;;;;5.86;63.42;96606.78;8234093;28;20210;-74
2020/12/07 17:41:42;;;;;;;16.47;14.73;;;;;;;5.93;62.94;96606.47;8241248;28;20221;-74
2020/12/07 17:45:44;;;;;;;17.23;15.27;;;;;;;5.90;63.71;96604.03;8237992;28;20206;-75
2020/12/07 17:49:47;;;;;;;11.07;9.60;;;;;;;6.15;62.55;96609.72;8240961;28;20245;-75
2020/12/07 17:53:49;;;;;;;9.63;8.63;;;;;;;6.19;62.68;96606.09;8238209;28;20233;-75
2020/12/07 17:57:53;;;;;;;11.83;10.63;;;;;;;5.97;62.75;96606.28;8255660;28;20213;-75
2020/12/07 18:01:55;;;;;;;12.07;10.00;;;;;;;6.15;62.60;96608.88;8245812;28;20198;-76
2020/12/07 18:05:57;;;;;;;10.77;9.27;;;;;;;6.12;63.12;96606.47;8269584;28;20206;-76
2020/12/07 18:09:59;;;;;;;10.43;9.37;;;;;;;5.92;62.48;96608.22;8268965;28;20202;-76
2020/12/07 18:14:01;;;;;;;9.60;8.60;;;;;;;5.69;62.72;96601.56;8269284;28;20684;-76
2020/12/07 18:18:02;;;;;;;10.57;9.47;;;;;;;6.14;62.18;96613.19;8258027;28;20677;-75
2020/12/07 18:22:05;;;;;;;13.27;10.67;;;;;;;5.96;62.19;96614.03;8237132;28;20214;-76
2020/12/07 18:26:07;;;;;;;10.03;9.03;;;;;;;5.78;62.58;96608.84;8238089;28;20202;-77
2020/12/07 18:30:10;;;;;;;10.97;8.60;;;;;;;5.79;62.03;96610.53;8237571;28;20524;-76
2020/12/07 18:34:12;;;;;;;11.03;7.80;;;;;;;5.56;62.79;96608.16;8237351;28;20223;-77
2020/12/07 18:38:15;;;;;;;9.20;8.30;;;;;;;5.34;62.84;96609.16;8236592;28;20238;-76
2020/12/07 18:42:17;;;;;;;9.33;8.50;;;;;;;5.73;62.48;96612.53;8248093;28;20210;-76
2020/12/07 18:46:22;;;;;;;10.60;9.50;;;;;;;5.85;62.15;96605.09;8236639;28;20246;-76
2020/12/07 18:50:24;;;;;;;9.27;8.40;;;;;;;5.99;61.75;96598.50;8236433;28;20186;-76
2020/12/07 18:54:27;;;;;;;10.10;9.03;;;;;;;6.01;61.60;96594.94;8236535;28;20682;-76
2020/12/07 18:58:29;;;;;;;8.83;8.03;;;;;;;6.13;61.47;96600.41;8239905;28;20638;-75
2020/12/07 19:02:31;;;;;;;9.30;8.50;;;;;;;5.99;61.31;96590.78;8261063;28;20230;-76
2020/12/07 19:06:33;;;;;;;10.43;9.20;;;;;;;6.13;60.76;96584.97;8246949;28;20254;-78
2020/12/07 19:10:35;;;;;;;14.40;12.90;;;;;;;6.20;60.78;96599.19;8241876;28;20198;-77
2020/12/07 19:14:37;;;;;;;10.70;9.70;;;;;;;6.06;61.20;96598.13;8257702;28;20234;-77
2020/12/07 19:18:39;;;;;;;10.80;9.70;;;;;;;6.11;60.70;96600.50;8265885;28;20201;-77
2020/12/07 19:22:41;;;;;;;10.30;9.30;;;;;;;6.05;60.53;96601.63;8245429;28;20221;-78
2020/12/07 19:26:52;;;;;;;10.20;9.20;;;;;;;6.03;61.12;96595.69;8257602;28;20197;-78
2020/12/07 19:30:54;;;;;;;10.73;9.73;;;;;;;6.08;60.93;96605.78;8255036;28;20221;-77
2020/12/07 19:34:55;;;;;;;10.10;9.10;;;;;;;6.03;61.01;96612.84;8233003;28;20318;-77
2020/12/07 19:38:57;;;;;;;9.90;9.00;;;;;;;5.98;60.74;96612.25;8236900;28;20198;-77
2020/12/07 19:43:00;;;;;;;12.60;10.73;;;;;;;5.90;60.77;96604.03;8234010;28;20211;-76
2020/12/07 19:47:02;;;;;;;10.83;8.57;;;;;;;5.68;61.33;96605.06;8235937;28;20722;-76
2020/12/07 19:51:04;;;;;;;9.87;8.93;;;;;;;5.70;61.54;96615.25;8233186;28;20265;-76